Harwood, Washington
Current Conditions -  °F | °C
As of 7:02 AM on Friday 19 Dec 2014 (Local Time) from KYKM Reporting Station
Haze Haze  
Wind Chill: 38°   Ceiling: 500
Heat Index: 38°   Visibility: 1.5mi
Dew Point: 36°   Wind: 3mph
Humidity: 93%   Direction: 250°WSW
Pressure: 29.89"   Gusts: NA
Location:  46.5979°N, 120.534°W
Report Text: KYKM 191502Z 25003KT 1 1/2SM BR BKN005 OVC009 03/02 A2989 RMK AO2 T00330022
Loading
Personal Weather Stations






























Interactive Weather Map New forecast layout! Learn more

10-Day Weather Forecast

Advertisements
Track Severe Weather on mobile